.
WxDataArchive / Data Records for 2015-07-27
2015-07-26 July 2015 2015-07-28

Data Records for Monday, 27 July 2015

Time	Temp	Chill	HIndex	Humid	Dewpt	 Wind 	HiWind	WindDir	Rain 	Barom
-----	----	-----	------	-----	-----	------	------	-------	-----	-----
00:00	73.9	73.9	73.9	69	63.1	0	1	90	0.00	29.925 
00:05	73.7	73.7	73.7	70	63.3	0	0	---	0.00	29.925 
00:10	73.5	73.5	73.5	70	63.1	0	1	90	0.00	29.925 
00:15	73.3	73.3	73.3	70	62.9	0	1	90	0.00	29.927 
00:20	73.2	73.2	73.2	70	62.8	0	1	90	0.00	29.927 
00:25	73.0	73.0	73.0	70	62.6	0	0	---	0.00	29.927 
00:30	73.0	73.0	73.0	71	63.0	0	0	---	0.00	29.927 
00:35	72.8	72.8	72.8	70	62.4	0	0	---	0.00	29.927 
00:40	72.7	72.7	72.7	71	62.7	0	0	---	0.00	29.927 
00:45	72.7	72.7	72.7	71	62.7	0	1	90	0.00	29.928 
00:50	72.5	72.5	72.5	72	62.9	0	1	90	0.00	29.928 
00:55	72.5	72.5	72.5	71	62.5	0	2	90	0.00	29.928 
01:00	72.3	72.3	72.3	72	62.8	0	1	90	0.00	29.928 
01:05	72.3	72.3	72.3	72	62.8	0	1	90	0.00	29.928 
01:10	72.1	72.1	72.1	72	62.6	0	0	---	0.00	29.928 
01:15	72.1	72.1	72.1	72	62.6	0	0	---	0.00	29.926 
01:20	72.0	72.0	72.0	72	62.5	0	0	---	0.00	29.926 
01:25	72.0	72.0	72.0	73	62.9	0	0	---	0.00	29.926 
01:30	71.8	71.8	71.8	73	62.7	0	0	---	0.00	29.929 
01:35	71.8	71.8	71.8	74	63.1	0	0	---	0.00	29.929 
01:40	71.8	71.8	71.8	75	63.4	0	0	---	0.00	29.929 
01:45	71.6	71.6	71.6	76	63.6	0	0	---	0.00	29.928 
01:50	71.6	71.6	71.6	77	64.0	0	0	---	0.00	29.928 
01:55	71.5	71.5	71.5	77	63.9	0	0	---	0.00	29.928 
02:00	71.3	71.3	71.3	77	63.7	0	1	90	0.00	29.927 
02:05	71.3	71.3	71.3	77	63.7	0	0	---	0.00	29.927 
02:10	71.3	71.3	71.3	76	63.3	0	0	---	0.00	29.927 
02:15	71.3	71.3	71.3	76	63.3	0	1	90	0.00	29.927 
02:20	71.3	71.3	71.3	76	63.3	0	2	90	0.00	29.927 
02:25	71.3	71.3	71.3	75	63.0	0	1	90	0.00	29.927 
02:30	71.5	71.5	71.5	75	63.1	0	2	90	0.00	29.920 
02:35	71.5	71.5	71.5	75	63.1	0	2	90	0.00	29.920 
02:40	71.3	71.3	71.3	75	63.0	0	1	90	0.00	29.920 
02:45	71.3	71.3	71.3	76	63.3	0	2	90	0.00	29.920 
02:50	71.3	71.3	71.3	75	63.0	0	1	90	0.00	29.920 
02:55	71.3	71.3	71.3	75	63.0	0	1	90	0.00	29.920 
03:00	71.1	71.1	71.1	74	62.4	0	1	90	0.00	29.914 
03:05	71.1	71.1	71.1	73	62.0	0	1	90	0.00	29.914 
03:10	71.1	71.1	71.1	73	62.0	0	0	---	0.00	29.914 
03:15	71.1	71.1	71.1	73	62.0	0	0	---	0.00	29.913 
03:20	70.9	70.9	70.9	73	61.8	0	0	---	0.00	29.913 
03:25	70.9	70.9	70.9	74	62.2	0	1	90	0.00	29.913 
03:30	70.8	70.8	70.8	75	62.5	0	0	---	0.00	29.913 
03:35	70.8	70.8	70.8	75	62.5	0	0	---	0.00	29.913 
03:40	70.6	70.6	70.6	76	62.7	0	0	---	0.00	29.913 
03:45	70.4	70.4	70.4	76	62.5	0	0	---	0.00	29.913 
03:50	70.4	70.4	70.4	77	62.8	0	0	---	0.00	29.913 
03:55	70.3	70.3	70.3	77	62.7	0	0	---	0.00	29.913 
04:00	70.3	70.3	70.3	77	62.7	0	0	---	0.00	29.920 
04:05	70.3	70.3	70.3	78	63.1	0	0	---	0.00	29.920 
04:10	70.1	70.1	70.1	77	62.5	0	1	90	0.00	29.920 
04:15	70.1	70.1	70.1	77	62.5	0	1	90	0.00	29.916 
04:20	70.1	70.1	70.1	77	62.5	0	2	90	0.00	29.916 
04:25	70.1	70.1	70.1	77	62.5	0	1	90	0.00	29.916 
04:30	69.9	69.9	69.9	77	62.3	0	2	90	0.00	29.913 
04:35	69.9	69.9	69.9	76	62.0	0	2	90	0.00	29.913 
04:40	69.9	69.9	69.9	75	61.6	0	3	90	0.00	29.913 
04:45	69.8	69.8	69.8	75	61.5	0	1	90	0.00	29.916 
04:50	69.8	69.8	69.8	75	61.5	0	2	90	0.00	29.916 
04:55	69.8	69.8	69.8	75	61.5	0	1	90	0.00	29.916 
05:00	69.8	69.8	69.8	75	61.5	0	1	90	0.00	29.920 
05:05	69.6	69.6	69.6	75	61.3	0	3	90	0.00	29.920 
05:10	69.4	69.4	69.4	76	61.5	0	0	---	0.00	29.920 
05:15	69.4	69.4	69.4	76	61.5	0	0	---	0.00	29.929 
05:20	69.3	69.3	69.3	76	61.4	0	1	90	0.00	29.929 
05:25	69.1	69.1	69.1	76	61.2	0	1	90	0.00	29.929 
05:30	69.1	69.1	69.1	76	61.2	0	1	90	0.00	29.928 
05:35	69.1	69.1	69.1	76	61.2	0	1	90	0.00	29.928 
05:40	68.9	68.9	68.9	75	60.6	0	1	90	0.00	29.928 
05:45	68.9	68.9	68.9	76	61.0	0	1	90	0.00	29.930 
05:50	68.9	68.9	68.9	76	61.0	0	1	90	0.00	29.930 
05:55	69.1	69.1	69.1	76	61.2	0	2	90	0.00	29.930 
06:00	69.1	69.1	69.1	75	60.8	1	4	90	0.00	29.931 
06:05	69.1	69.1	69.1	74	60.5	0	4	90	0.00	29.931 
06:10	68.9	68.9	68.9	74	60.3	0	2	90	0.00	29.931 
06:15	68.9	68.9	68.9	75	60.6	0	1	90	0.00	29.937 
06:20	68.8	68.8	68.8	75	60.5	0	0	---	0.00	29.937 
06:25	68.6	68.6	68.6	75	60.3	0	1	90	0.00	29.937 
06:30	68.4	68.4	68.4	75	60.2	0	0	---	0.00	29.939 
06:35	68.4	68.4	68.4	76	60.5	0	0	---	0.00	29.939 
06:40	68.3	68.3	68.3	76	60.4	0	0	---	0.00	29.939 
06:45	68.1	68.1	68.1	77	60.6	0	0	---	0.00	29.936 
06:50	68.1	68.1	68.1	76	60.2	0	0	---	0.00	29.936 
06:55	68.1	68.1	68.1	75	59.9	0	2	90	0.00	29.936 
07:00	68.1	68.1	68.1	75	59.9	0	1	90	0.00	29.936 
07:05	68.3	68.3	68.3	75	60.1	0	2	90	0.00	29.936 
07:10	68.3	68.3	68.3	76	60.4	0	1	90	0.00	29.936 
07:15	68.3	68.3	68.3	75	60.1	0	2	90	0.00	29.948 
07:20	68.4	68.4	68.4	76	60.5	0	1	90	0.00	29.948 
07:25	68.4	68.4	68.4	76	60.5	0	1	90	0.00	29.948 
07:30	68.6	68.6	68.6	75	60.3	0	3	90	0.00	29.949 
07:35	68.8	68.8	68.8	75	60.5	0	1	90	0.00	29.949 
07:40	68.8	68.8	68.8	75	60.5	0	1	90	0.00	29.949 
07:45	68.8	68.8	68.8	76	60.9	0	0	---	0.00	29.948 
07:50	68.8	68.8	68.8	76	60.9	0	1	90	0.00	29.948 
07:55	68.8	68.8	68.8	76	60.9	0	0	---	0.00	29.948 
08:00	68.9	68.9	68.9	77	61.4	0	3	90	0.00	29.958 
08:05	69.8	69.8	69.8	75	61.5	0	2	90	0.00	29.958 
08:10	70.6	70.6	70.6	73	61.5	0	2	90	0.00	29.958 
08:15	71.5	71.5	71.5	70	61.2	1	4	90	0.00	29.962 
08:20	72.0	72.0	72.0	69	61.3	1	4	90	0.00	29.962 
08:25	72.5	72.5	72.5	69	61.7	1	4	90	0.00	29.962 
08:30	72.7	72.7	72.7	69	61.9	2	5	90	0.00	29.962 
08:35	72.8	72.8	72.8	69	62.0	2	5	90	0.00	29.962 
08:40	73.3	73.3	73.3	68	62.1	1	3	90	0.00	29.962 
08:45	74.0	74.0	74.0	67	62.3	1	3	90	0.00	29.959 
08:50	74.6	74.6	74.6	66	62.5	1	4	90	0.00	29.959 
08:55	74.7	74.7	74.7	65	62.1	2	4	90	0.00	29.959 
09:00	74.7	74.7	74.7	66	62.6	0	2	90	0.00	29.962 
09:05	74.6	74.6	74.6	66	62.5	1	4	90	0.00	29.962 
09:10	74.6	74.6	74.6	66	62.5	1	3	90	0.00	29.962 
09:15	74.6	74.6	74.6	66	62.5	1	4	90	0.00	29.965 
09:20	74.6	74.6	74.6	67	62.9	0	2	90	0.00	29.965 
09:25	74.6	74.6	74.6	67	62.9	1	4	90	0.00	29.965 
09:30	74.7	74.7	74.7	67	63.0	0	2	90	0.00	29.971 
09:35	75.1	75.1	77.0	67	63.4	0	3	90	0.00	29.971 
09:40	75.3	75.3	77.2	66	63.1	0	1	90	0.00	29.971 
09:45	75.3	75.3	77.4	64	62.3	1	3	90	0.00	29.978 
09:50	75.6	75.6	77.4	67	63.9	0	3	68	0.00	29.978 
09:55	76.1	76.1	78.0	63	62.6	2	5	68	0.00	29.978 
10:00	76.3	76.3	78.2	63	62.8	1	4	68	0.00	29.977 
10:05	76.3	76.3	78.2	64	63.2	2	6	90	0.00	29.977 
10:10	76.3	76.3	78.2	62	62.3	2	5	90	0.00	29.977 
10:15	76.3	76.3	78.2	64	63.2	1	5	90	0.00	29.980 
10:20	76.7	76.7	78.5	63	63.1	1	5	90	0.00	29.980 
10:25	77.0	77.0	78.8	62	63.0	1	4	90	0.00	29.980 
10:30	77.2	77.2	79.0	62	63.2	1	4	90	0.00	29.984 
10:35	77.4	77.4	79.2	62	63.3	1	5	68	0.00	29.984 
10:40	77.7	77.7	79.4	62	63.6	1	5	68	0.00	29.984 
10:45	77.9	77.9	79.6	61	63.3	2	5	68	0.00	29.990 
10:50	78.5	78.5	80.1	59	63.0	1	5	68	0.00	29.990 
10:55	79.0	79.0	80.6	59	63.4	1	3	68	0.00	29.990 
11:00	79.8	79.8	81.3	57	63.2	1	5	68	0.00	29.986 
11:05	80.3	80.3	81.8	57	63.7	1	4	68	0.00	29.986 
11:10	80.5	80.5	81.9	56	63.3	1	5	68	0.00	29.986 
11:15	80.9	80.9	82.3	55	63.2	1	3	68	0.00	29.980 
11:20	81.1	81.1	82.5	55	63.4	1	5	68	0.00	29.980 
11:25	81.6	81.6	82.9	54	63.3	1	3	68	0.00	29.980 
11:30	81.6	81.6	83.1	55	63.8	2	5	68	0.00	29.985 
11:35	81.6	81.6	82.6	52	62.2	2	5	68	0.00	29.985 
11:40	81.4	81.4	82.8	55	63.7	1	4	68	0.00	29.985 
11:45	81.6	81.6	82.8	53	62.8	2	4	90	0.00	29.986 
11:50	81.6	81.6	82.8	53	62.8	1	4	90	0.00	29.986 
11:55	82.2	82.2	83.3	52	62.8	1	3	68	0.00	29.986 
12:00	82.8	82.8	84.2	53	63.9	1	4	112	0.00	29.979 
12:05	83.0	83.0	84.5	53	64.1	1	6	90	0.00	29.979 
12:10	82.6	82.6	83.6	51	62.6	3	6	112	0.00	29.979 
12:15	82.6	82.6	84.1	54	64.2	2	5	68	0.00	29.978 
12:20	82.8	82.8	83.7	50	62.2	1	6	68	0.00	29.978 
12:25	83.2	83.2	84.1	50	62.6	1	4	90	0.00	29.978 
12:30	83.6	83.6	85.0	52	64.1	2	4	68	0.00	29.984 
12:35	83.8	83.8	84.9	50	63.1	1	4	68	0.00	29.984 
12:40	83.8	83.8	84.9	50	63.1	1	3	68	0.00	29.984 
12:45	83.8	83.8	84.5	48	62.0	1	3	68	0.00	29.978 
12:50	84.0	84.0	84.5	47	61.6	2	6	68	0.00	29.978 
12:55	83.8	83.8	85.3	52	64.3	2	5	112	0.00	29.978 
13:00	83.8	83.8	84.9	50	63.1	2	9	90	0.00	29.974 
13:05	84.0	84.0	85.1	50	63.3	1	4	112	0.00	29.974 
13:10	84.1	84.1	85.3	50	63.4	2	9	68	0.00	29.974 
13:15	84.1	84.1	84.6	47	61.7	2	7	90	0.00	29.974 
13:20	84.3	84.3	85.1	48	62.4	1	6	90	0.00	29.974 
13:25	84.3	84.3	84.9	47	61.8	1	5	112	0.00	29.974 
13:30	84.3	84.3	85.1	48	62.4	2	6	90	0.00	29.974 
13:35	84.3	84.3	84.9	47	61.8	1	4	315	0.00	29.974 
13:40	84.5	84.5	85.3	48	62.6	2	4	112	0.00	29.974 
13:45	84.3	84.3	84.7	46	61.2	2	5	112	0.00	29.969 
13:50	84.1	84.1	84.6	47	61.7	2	6	90	0.00	29.969 
13:55	84.0	84.0	84.0	44	59.7	2	5	90	0.00	29.969 
14:00	84.0	84.0	84.1	45	60.3	3	9	90	0.00	29.970 
14:05	84.1	84.1	83.9	43	59.2	2	5	68	0.00	29.970 
14:10	84.1	84.1	84.3	45	60.4	3	7	90	0.00	29.970 
14:15	84.3	84.3	84.3	44	60.0	2	5	90	0.00	29.960 
14:20	84.5	84.5	84.3	43	59.5	2	5	90	0.00	29.960 
14:25	84.7	84.7	84.7	44	60.3	2	6	90	0.00	29.960 
14:30	84.9	84.9	84.8	43	59.9	2	5	112	0.00	29.957 
14:35	85.1	85.1	85.7	46	62.0	2	6	90	0.00	29.957 
14:40	85.5	85.5	85.5	43	60.4	1	4	90	0.00	29.957 
14:45	85.9	85.9	86.2	44	61.4	2	7	90	0.00	29.955 
14:50	85.7	85.7	86.0	44	61.2	1	6	90	0.00	29.955 
14:55	85.5	85.5	85.3	42	59.8	1	4	90	0.00	29.955 
15:00	85.5	85.5	86.4	47	62.9	0	3	90	0.00	29.953 
15:05	85.9	85.9	86.2	44	61.4	1	4	68	0.00	29.953 
15:10	86.1	86.1	86.2	43	61.0	1	5	68	0.00	29.953 
15:15	85.9	85.9	86.4	45	62.1	2	4	90	0.00	29.949 
15:20	85.9	85.9	85.5	41	59.4	1	6	90	0.00	29.949 
15:25	86.3	86.3	86.0	41	59.8	1	4	90	0.00	29.949 
15:30	86.3	86.3	85.8	40	59.1	2	5	90	0.00	29.954 
15:35	85.9	85.9	86.4	45	62.1	1	4	90	0.00	29.954 
15:40	85.9	85.9	86.4	45	62.1	0	3	90	0.00	29.954 
15:45	85.5	85.5	84.9	40	58.4	2	4	68	0.00	29.954 
15:50	85.1	85.1	85.0	43	60.1	1	4	90	0.00	29.954 
15:55	84.9	84.9	84.4	41	58.5	1	6	112	0.00	29.954 
16:00	85.1	85.1	85.7	46	62.0	1	3	112	0.00	29.951 
16:05	85.3	85.3	85.5	44	60.9	2	5	68	0.00	29.951 
16:10	85.3	85.3	85.7	45	61.5	1	3	90	0.00	29.951 
16:15	85.3	85.3	85.2	43	60.2	0	1	90	0.00	29.948 
16:20	85.5	85.5	86.2	46	62.3	0	2	90	0.00	29.948 
16:25	85.7	85.7	85.7	43	60.6	1	4	90	0.00	29.948 
16:30	85.5	85.5	85.5	43	60.4	0	3	90	0.00	29.947 
16:35	85.3	85.3	85.5	44	60.9	1	3	90	0.00	29.947 
16:40	85.5	85.5	85.3	42	59.8	2	4	90	0.00	29.947 
16:45	85.5	85.5	85.1	41	59.1	2	5	90	0.00	29.942 
16:50	85.5	85.5	85.5	43	60.4	2	7	90	0.00	29.942 
16:55	85.7	85.7	85.5	42	59.9	1	5	90	0.00	29.942 
17:00	85.7	85.7	85.3	41	59.3	1	3	90	0.00	29.941 
17:05	85.7	85.7	85.1	40	58.6	2	5	90	0.00	29.941 
17:10	85.5	85.5	84.9	40	58.4	3	5	90	0.00	29.941 
17:15	85.5	85.5	85.3	42	59.8	2	5	90	0.00	29.940 
17:20	85.5	85.5	85.1	41	59.1	2	4	112	0.00	29.940 
17:25	85.7	85.7	85.1	40	58.6	0	4	112	0.00	29.940 
17:30	85.9	85.9	85.3	40	58.7	1	3	112	0.00	29.934 
17:35	86.1	86.1	86.0	42	60.3	0	1	112	0.00	29.934 
17:40	86.1	86.1	85.6	40	58.9	0	2	225	0.00	29.934 
17:45	86.1	86.1	85.6	40	58.9	2	6	68	0.00	29.934 
17:50	85.7	85.7	84.9	39	57.9	1	4	68	0.00	29.934 
17:55	85.5	85.5	85.1	41	59.1	1	4	68	0.00	29.934 
18:00	85.5	85.5	85.1	41	59.1	1	4	68	0.00	29.929 
18:05	85.5	85.5	85.3	42	59.8	1	3	68	0.00	29.929 
18:10	85.3	85.3	84.7	40	58.2	1	4	68	0.00	29.929 
18:15	85.3	85.3	85.5	44	60.9	0	3	68	0.00	29.928 
18:20	85.1	85.1	84.8	42	59.4	1	4	68	0.00	29.928 
18:25	84.9	84.9	84.0	39	57.1	1	6	90	0.00	29.928 
18:30	84.9	84.9	84.2	40	57.8	1	4	90	0.00	29.928 
18:35	84.7	84.7	83.7	38	56.2	1	4	90	0.00	29.928 
18:40	84.7	84.7	83.8	39	57.0	0	3	45	0.00	29.928 
18:45	84.5	84.5	83.3	37	55.3	1	4	90	0.00	29.928 
18:50	84.5	84.5	83.6	39	56.8	1	4	90	0.00	29.928 
18:55	84.3	84.3	83.3	38	55.9	1	3	90	0.00	29.928 
19:00	84.3	84.3	83.4	39	56.6	0	3	90	0.00	29.922 
19:05	84.3	84.3	83.4	39	56.6	1	4	90	0.00	29.922 
19:10	84.1	84.1	83.4	40	57.1	1	3	90	0.00	29.922 
19:15	84.1	84.1	83.7	42	58.5	1	4	112	0.00	29.924 
19:20	84.0	84.0	83.4	41	57.7	1	5	112	0.00	29.924 
19:25	84.0	84.0	83.4	41	57.7	0	2	112	0.00	29.924 
19:30	83.8	83.8	83.2	41	57.6	0	2	112	0.00	29.928 
19:35	83.6	83.6	82.9	40	56.7	0	2	112	0.00	29.928 
19:40	83.6	83.6	83.2	42	58.0	0	3	112	0.00	29.928 
19:45	83.4	83.4	83.2	43	58.5	0	1	112	0.00	29.928 
19:50	83.2	83.2	83.0	43	58.3	1	5	112	0.00	29.928 
19:55	83.0	83.0	83.1	45	59.4	0	2	112	0.00	29.928 
20:00	82.8	82.8	83.0	46	59.9	0	1	112	0.00	29.931 
20:05	82.6	82.6	83.0	47	60.3	0	1	112	0.00	29.931 
20:10	82.4	82.4	82.7	47	60.1	0	1	112	0.00	29.931 
20:15	82.2	82.2	82.7	48	60.5	0	1	112	0.00	29.927 
20:20	81.8	81.8	82.3	48	60.2	0	1	112	0.00	29.927 
20:25	81.6	81.6	82.3	50	61.1	0	0	---	0.00	29.927 
20:30	81.2	81.2	81.9	50	60.8	0	0	---	0.00	29.928 
20:35	80.9	80.9	81.9	52	61.6	0	0	---	0.00	29.928 
20:40	80.5	80.5	81.6	53	61.8	0	0	---	0.00	29.928 
20:45	80.1	80.1	81.2	53	61.4	0	0	---	0.00	29.927 
20:50	79.8	79.8	80.9	53	61.1	0	0	---	0.00	29.927 
20:55	79.4	79.4	80.6	54	61.3	0	0	---	0.00	29.927 
21:00	79.0	79.0	80.3	55	61.4	0	0	---	0.00	29.927 
21:05	78.5	78.5	79.9	56	61.5	0	0	---	0.00	29.927 
21:10	78.1	78.1	79.6	57	61.6	0	0	---	0.00	29.927 
21:15	77.7	77.7	79.3	58	61.7	0	0	---	0.00	29.930 
21:20	77.6	77.6	79.3	59	62.1	0	0	---	0.00	29.930 
21:25	77.2	77.2	78.9	60	62.2	0	1	112	0.00	29.930 
21:30	77.0	77.0	78.8	61	62.5	0	0	---	0.00	29.939 
21:35	77.0	77.0	78.8	62	63.0	0	1	112	0.00	29.939 
21:40	77.2	77.2	79.0	62	63.2	0	1	112	0.00	29.939 
21:45	77.2	77.2	79.0	63	63.6	0	0	---	0.00	29.946 
21:50	77.0	77.0	78.8	64	63.9	0	0	---	0.00	29.946 
21:55	76.8	76.8	78.6	65	64.1	0	0	---	0.00	29.946 
22:00	76.7	76.7	78.5	65	64.0	0	1	112	0.00	29.950 
22:05	76.3	76.3	78.1	66	64.1	0	0	---	0.00	29.950 
22:10	76.1	76.1	77.9	66	63.9	0	0	---	0.00	29.950 
22:15	76.0	76.0	77.8	67	64.2	0	1	112	0.00	29.957 
22:20	75.8	75.8	77.6	67	64.0	0	1	112	0.00	29.957 
22:25	75.6	75.6	77.4	68	64.3	0	1	112	0.00	29.957 
22:30	75.3	75.3	77.1	68	64.0	0	0	---	0.00	29.961 
22:35	75.1	75.1	76.9	68	63.8	0	0	---	0.00	29.961 
22:40	74.9	74.9	74.9	68	63.6	0	1	112	0.00	29.961 
22:45	74.9	74.9	74.9	68	63.6	0	1	112	0.00	29.969 
22:50	74.7	74.7	74.7	68	63.4	0	0	---	0.00	29.969 
22:55	74.6	74.6	74.6	69	63.7	0	0	---	0.00	29.969 
23:00	74.2	74.2	74.2	69	63.4	0	1	112	0.00	29.974 
23:05	74.0	74.0	74.0	70	63.6	0	0	---	0.00	29.974 
23:10	73.7	73.7	73.7	70	63.3	0	0	---	0.00	29.974 
23:15	73.5	73.5	73.5	71	63.5	0	0	---	0.00	29.974 
23:20	73.2	73.2	73.2	71	63.2	0	0	---	0.00	29.974 
23:25	73.0	73.0	73.0	72	63.4	0	0	---	0.00	29.974 
23:30	72.7	72.7	72.7	73	63.5	0	0	---	0.00	29.972 
23:35	72.5	72.5	72.5	73	63.3	0	0	---	0.00	29.972 
23:40	72.1	72.1	72.1	74	63.3	0	0	---	0.00	29.972 
23:45	72.0	72.0	72.0	75	63.6	0	0	---	0.00	29.975 
23:50	71.6	71.6	71.6	76	63.6	0	0	---	0.00	29.975 
23:55	71.3	71.3	71.3	76	63.3	0	0	---	0.00	29.975 

CoCoRaHS
IN-AL-39
A2 Web Hosting
Creative Commons License
GoDaddy
search engine by freefind advanced

loaded 2018-11-15 02:59:20 • last modified 2010-11-18 10:43:29
Privacy PolicyDisclaimer
• wx.awcolley.com is powered by PmWiki v.2002016 •
• all content (unless otherwise noted) © 2018 A W Colley